Time;durP1;ratioP1;P1;durP2;ratioP2;P2;SDS_P1;SDS_P2;PMS_P1;PMS_P2;Temp;Humidity;BMP_temperature;BMP_pressure;BME280_temperature;BME280_humidity;BME280_pressure;Samples;Min_cycle;Max_cycle;Signal;HPM_P1;HPM_P2
2021/05/11 00:00:17;;;;;;;6.70;1.35;;;;;;;;;;4986194;28;20053;-74
2021/05/11 00:02:42;;;;;;;3.88;1.23;;;;;;;;;;4987631;28;20097;-74
2021/05/11 00:05:07;;;;;;;2.35;1.25;;;;;;;;;;4985425;28;20073;-76
2021/05/11 00:07:32;;;;;;;2.50;0.93;;;;;;;;;;4985418;28;20025;-75
2021/05/11 00:09:58;;;;;;;2.00;1.02;;;;;;;;;;4991763;28;20819;-76
2021/05/11 00:12:23;;;;;;;2.30;0.90;;;;;;;;;;4988149;28;20026;-76
2021/05/11 00:14:48;;;;;;;2.88;1.55;;;;;;;;;;4994183;28;20545;-75
2021/05/11 00:17:13;;;;;;;3.85;1.02;;;;;;;;;;4992793;28;20029;-75
2021/05/11 00:19:38;;;;;;;1.35;1.00;;;;;;;;;;4998721;28;20015;-74
2021/05/11 00:22:04;;;;;;;1.48;0.93;;;;;;;;;;4988505;28;20018;-74
2021/05/11 00:24:29;;;;;;;2.92;1.17;;;;;;;;;;4987650;28;20407;-75
2021/05/11 00:26:54;;;;;;;2.05;0.90;;;;;;;;;;4986575;28;20370;-75
2021/05/11 00:29:19;;;;;;;1.80;1.07;;;;;;;;;;4987838;28;20026;-75
2021/05/11 00:31:44;;;;;;;1.85;0.90;;;;;;;;;;4987624;28;20274;-75
2021/05/11 00:34:09;;;;;;;1.75;0.93;;;;;;;;;;4985681;28;20014;-75
2021/05/11 00:36:35;;;;;;;3.05;0.90;;;;;;;;;;4987946;28;20571;-76
2021/05/11 00:39:00;;;;;;;1.85;0.90;;;;;;;;;;4987205;28;20023;-75
2021/05/11 00:41:25;;;;;;;3.75;1.08;;;;;;;;;;4990104;28;20022;-74
2021/05/11 00:43:50;;;;;;;1.65;1.00;;;;;;;;;;4990370;28;20109;-75
2021/05/11 00:46:16;;;;;;;2.65;1.00;;;;;;;;;;4992761;28;20026;-76
2021/05/11 00:48:41;;;;;;;4.25;0.70;;;;;;;;;;4995033;28;20026;-74
2021/05/11 00:51:07;;;;;;;1.90;0.80;;;;;;;;;;4991432;28;20062;-74
2021/05/11 00:53:34;;;;;;;1.55;0.80;;;;;;;;;;4984204;28;20041;-74
2021/05/11 00:55:59;;;;;;;0.93;0.80;;;;;;;;;;5012249;28;20036;-74
2021/05/11 00:58:25;;;;;;;2.00;1.02;;;;;;;;;;5006337;28;20086;-76
2021/05/11 01:00:50;;;;;;;2.17;1.00;;;;;;;;;;5004346;28;20034;-75
2021/05/11 01:03:15;;;;;;;1.33;0.80;;;;;;;;;;5003250;28;20037;-75
2021/05/11 01:05:40;;;;;;;1.45;0.88;;;;;;;;;;4996024;28;20175;-75
2021/05/11 01:08:05;;;;;;;1.13;0.80;;;;;;;;;;5003807;28;20029;-76
2021/05/11 01:10:31;;;;;;;3.00;0.70;;;;;;;;;;5002933;28;20748;-75
2021/05/11 01:12:56;;;;;;;1.92;0.93;;;;;;;;;;4996676;28;20030;-76
2021/05/11 01:15:21;;;;;;;2.78;1.10;;;;;;;;;;5007637;28;20023;-75
2021/05/11 01:18:00;;;;;;;1.45;0.88;;;;;;;;;;4999977;28;20929;-75
2021/05/11 01:20:29;;;;;;;2.47;1.00;;;;;;;;;;5010130;28;20503;-74
2021/05/11 01:25:35;;;;;;;1.63;0.90;;;;;;;;;;5003729;28;20915;-75
2021/05/11 01:28:24;;;;;;;2.33;0.82;;;;;;;;;;5008323;28;20045;-74
2021/05/11 01:52:32;;;;;;;1.00;0.90;;;;;;;;;;4965198;28;20058;-75
2021/05/11 01:55:25;;;;;;;1.30;0.80;;;;;;;;;;4969369;28;20058;-75
2021/05/11 02:22:40;;;;;;;1.17;1.00;;;;;;;;;;5004869;28;20149;-75
2021/05/11 02:25:06;;;;;;;1.92;1.05;;;;;;;;;;5008041;28;20037;-75
2021/05/11 02:27:32;;;;;;;0.98;0.80;;;;;;;;;;5009098;28;20396;-75
2021/05/11 02:29:57;;;;;;;2.08;0.80;;;;;;;;;;5007504;28;20025;-76
2021/05/11 02:32:23;;;;;;;1.75;0.82;;;;;;;;;;5006441;28;20217;-77
2021/05/11 02:34:48;;;;;;;1.20;0.90;;;;;;;;;;5008895;28;20029;-75
2021/05/11 02:37:13;;;;;;;0.90;0.70;;;;;;;;;;4990632;28;20037;-75
2021/05/11 02:39:38;;;;;;;1.38;0.95;;;;;;;;;;5008954;28;20119;-75
2021/05/11 02:42:04;;;;;;;2.58;0.80;;;;;;;;;;5006416;28;20026;-75
2021/05/11 02:44:36;;;;;;;1.58;0.88;;;;;;;;;;5009460;28;20030;-75
2021/05/11 02:47:01;;;;;;;1.35;0.77;;;;;;;;;;5009268;28;20029;-74
2021/05/11 02:49:27;;;;;;;1.30;0.70;;;;;;;;;;5007639;28;20042;-75
2021/05/11 02:51:52;;;;;;;2.33;0.80;;;;;;;;;;5007206;28;20021;-75
2021/05/11 02:54:17;;;;;;;1.70;0.90;;;;;;;;;;5007308;28;20052;-76
2021/05/11 02:56:43;;;;;;;1.48;0.93;;;;;;;;;;5008375;28;20124;-75
2021/05/11 02:59:08;;;;;;;0.93;0.70;;;;;;;;;;5007953;28;20030;-76
2021/05/11 03:01:33;;;;;;;1.58;0.90;;;;;;;;;;5008649;28;20030;-76
2021/05/11 03:03:59;;;;;;;1.67;0.70;;;;;;;;;;5007506;28;20092;-75
2021/05/11 03:09:26;;;;;;;2.15;0.80;;;;;;;;;;5008501;28;20052;-77
2021/05/11 03:11:53;;;;;;;2.42;0.70;;;;;;;;;;5008382;28;20025;-75
2021/05/11 03:14:18;;;;;;;2.10;1.05;;;;;;;;;;5010760;28;20037;-75
2021/05/11 03:16:44;;;;;;;1.80;1.00;;;;;;;;;;5018523;28;20022;-75
2021/05/11 03:19:09;;;;;;;1.95;0.93;;;;;;;;;;5019880;28;20025;-74
2021/05/11 03:21:34;;;;;;;2.53;1.00;;;;;;;;;;5019168;28;20141;-74
2021/05/11 03:23:59;;;;;;;1.58;1.10;;;;;;;;;;5015409;28;20030;-75
2021/05/11 03:26:24;;;;;;;1.58;0.90;;;;;;;;;;5009176;28;20482;-75
2021/05/11 03:28:49;;;;;;;1.30;0.95;;;;;;;;;;5010421;28;20032;-75
2021/05/11 03:31:15;;;;;;;1.65;0.82;;;;;;;;;;5011104;28;20072;-75
2021/05/11 03:33:40;;;;;;;2.42;0.88;;;;;;;;;;5009728;28;20073;-74
2021/05/11 03:36:05;;;;;;;2.55;1.02;;;;;;;;;;5009131;28;20029;-74
2021/05/11 03:38:30;;;;;;;1.58;0.90;;;;;;;;;;5009243;28;20026;-75
2021/05/11 03:40:56;;;;;;;2.13;1.00;;;;;;;;;;5007678;28;20021;-75
2021/05/11 03:43:25;;;;;;;1.40;0.85;;;;;;;;;;5008051;28;20046;-75
2021/05/11 03:45:58;;;;;;;4.50;1.00;;;;;;;;;;5009141;28;20430;-75
2021/05/11 03:48:23;;;;;;;2.10;1.02;;;;;;;;;;5008757;28;20117;-75
2021/05/11 03:50:48;;;;;;;2.97;0.90;;;;;;;;;;5008673;28;20459;-76
2021/05/11 03:53:13;;;;;;;3.15;0.93;;;;;;;;;;5008454;28;20524;-72
2021/05/11 03:55:38;;;;;;;1.63;1.13;;;;;;;;;;5009131;28;20037;-75
2021/05/11 03:58:04;;;;;;;1.80;1.05;;;;;;;;;;5008753;28;20022;-76
2021/05/11 04:00:29;;;;;;;3.45;1.10;;;;;;;;;;5006295;28;20014;-75
2021/05/11 04:02:54;;;;;;;1.98;0.95;;;;;;;;;;5007837;28;20100;-75
2021/05/11 04:05:20;;;;;;;1.75;1.00;;;;;;;;;;5007768;28;20017;-75
2021/05/11 04:07:47;;;;;;;1.10;0.90;;;;;;;;;;4990170;28;20046;-75
2021/05/11 04:10:37;;;;;;;1.55;1.02;;;;;;;;;;5006292;28;20033;-74
2021/05/11 04:18:13;;;;;;;1.45;1.20;;;;;;;;;;5010596;28;20103;-75
2021/05/11 04:20:38;;;;;;;3.15;1.48;;;;;;;;;;5007842;28;20596;-74
2021/05/11 04:23:03;;;;;;;1.55;1.13;;;;;;;;;;5011762;28;20120;-74
2021/05/11 04:25:28;;;;;;;1.58;1.08;;;;;;;;;;5013758;28;20026;-74
2021/05/11 04:27:53;;;;;;;1.13;0.95;;;;;;;;;;5011777;28;20533;-75
2021/05/11 04:30:20;;;;;;;2.25;1.10;;;;;;;;;;5011960;28;20057;-75
2021/05/11 04:32:45;;;;;;;2.03;1.10;;;;;;;;;;5011138;28;20041;-75
2021/05/11 04:35:10;;;;;;;2.47;1.08;;;;;;;;;;5017087;28;20408;-75
2021/05/11 04:37:36;;;;;;;3.15;1.20;;;;;;;;;;5008227;28;20036;-74
2021/05/11 04:40:01;;;;;;;1.85;1.00;;;;;;;;;;5010805;28;20053;-76
2021/05/11 04:42:26;;;;;;;2.10;1.50;;;;;;;;;;5007726;28;20369;-74
2021/05/11 04:44:53;;;;;;;2.13;1.23;;;;;;;;;;5010170;28;20833;-75
2021/05/11 04:47:21;;;;;;;2.33;1.10;;;;;;;;;;5010434;28;20026;-74
2021/05/11 04:49:47;;;;;;;3.63;1.20;;;;;;;;;;5011172;28;20108;-74
2021/05/11 04:52:12;;;;;;;5.00;1.30;;;;;;;;;;5009341;28;20671;-75
2021/05/11 04:54:37;;;;;;;3.47;1.48;;;;;;;;;;5010689;28;20124;-75
2021/05/11 04:57:03;;;;;;;3.75;2.08;;;;;;;;;;5010386;28;20038;-75
2021/05/11 04:59:28;;;;;;;2.90;1.40;;;;;;;;;;5010406;28;20107;-75
2021/05/11 05:01:56;;;;;;;4.30;1.45;;;;;;;;;;5010670;28;20710;-76
2021/05/11 05:04:21;;;;;;;4.15;1.25;;;;;;;;;;5009945;28;20026;-77
2021/05/11 05:06:46;;;;;;;2.60;1.33;;;;;;;;;;5009899;28;20018;-76
2021/05/11 05:09:11;;;;;;;2.28;1.33;;;;;;;;;;5011556;28;20022;-76
2021/05/11 05:11:40;;;;;;;2.53;1.30;;;;;;;;;;5012238;28;20022;-77
2021/05/11 05:14:07;;;;;;;2.85;1.20;;;;;;;;;;5010060;28;20022;-72
2021/05/11 05:16:33;;;;;;;2.72;1.50;;;;;;;;;;5010993;28;20034;-71
2021/05/11 05:18:58;;;;;;;2.22;1.40;;;;;;;;;;5010759;28;20104;-72
2021/05/11 05:21:23;;;;;;;2.92;1.73;;;;;;;;;;4993285;28;20034;-71
2021/05/11 05:23:51;;;;;;;3.40;1.40;;;;;;;;;;5012602;28;20049;-70
2021/05/11 05:26:20;;;;;;;2.53;1.25;;;;;;;;;;5011214;28;20061;-74
2021/05/11 05:28:45;;;;;;;2.30;1.30;;;;;;;;;;5010614;28;20073;-73
2021/05/11 05:31:11;;;;;;;2.30;1.50;;;;;;;;;;5009794;28;20089;-73
2021/05/11 05:33:37;;;;;;;2.90;1.38;;;;;;;;;;5009142;28;20022;-74
2021/05/11 05:36:02;;;;;;;3.30;1.30;;;;;;;;;;5009837;28;20041;-73
2021/05/11 05:38:28;;;;;;;4.20;1.38;;;;;;;;;;5010310;28;20025;-73
2021/05/11 05:41:10;;;;;;;3.72;1.80;;;;;;;;;;5010101;28;20381;-72
2021/05/11 05:43:35;;;;;;;4.15;1.25;;;;;;;;;;4991738;28;20117;-72
2021/05/11 05:46:00;;;;;;;4.43;1.38;;;;;;;;;;4992166;28;20469;-72
2021/05/11 05:48:26;;;;;;;3.67;1.60;;;;;;;;;;5010206;28;20073;-72
2021/05/11 05:50:57;;;;;;;2.08;1.33;;;;;;;;;;5009394;28;20030;-71
2021/05/11 05:53:25;;;;;;;3.17;1.35;;;;;;;;;;5008347;28;20484;-72
2021/05/11 05:55:50;;;;;;;2.05;1.23;;;;;;;;;;5008244;28;20028;-72
2021/05/11 05:58:16;;;;;;;6.28;1.33;;;;;;;;;;5010309;28;20045;-71
2021/05/11 06:00:41;;;;;;;1.27;0.93;;;;;;;;;;5010882;28;20018;-71
2021/05/11 06:03:08;;;;;;;2.13;1.23;;;;;;;;;;5009585;28;20041;-71
2021/05/11 06:05:34;;;;;;;3.25;1.48;;;;;;;;;;5010392;28;20018;-72
2021/05/11 06:07:59;;;;;;;2.45;1.38;;;;;;;;;;5010006;28;20030;-72
2021/05/11 06:10:30;;;;;;;5.32;1.80;;;;;;;;;;5008559;28;20052;-74
2021/05/11 06:13:06;;;;;;;2.38;1.23;;;;;;;;;;5009298;28;20112;-73
2021/05/11 06:18:15;;;;;;;3.55;1.50;;;;;;;;;;5008220;28;20116;-73
2021/05/11 06:20:40;;;;;;;2.53;1.33;;;;;;;;;;5005997;28;20548;-74
2021/05/11 06:23:05;;;;;;;2.88;1.60;;;;;;;;;;5010202;28;20113;-73
2021/05/11 06:25:31;;;;;;;1.92;1.27;;;;;;;;;;4992345;28;20037;-73
2021/05/11 06:27:56;;;;;;;2.83;1.45;;;;;;;;;;5008907;28;20107;-73
2021/05/11 06:30:22;;;;;;;3.38;1.30;;;;;;;;;;5008895;28;20416;-72
2021/05/11 06:32:47;;;;;;;3.60;1.30;;;;;;;;;;5010423;28;20045;-73
2021/05/11 06:35:13;;;;;;;2.22;1.20;;;;;;;;;;5007644;28;20464;-73
2021/05/11 06:37:38;;;;;;;2.25;1.40;;;;;;;;;;5010213;28;20026;-73
2021/05/11 06:40:03;;;;;;;4.53;1.40;;;;;;;;;;5008405;28;20104;-73
2021/05/11 06:42:30;;;;;;;2.47;1.50;;;;;;;;;;5010536;28;20029;-74
2021/05/11 06:47:30;;;;;;;2.45;1.40;;;;;;;;;;5004603;28;20049;-73
2021/05/11 06:54:57;;;;;;;1.95;1.25;;;;;;;;;;5009704;28;20050;-74
2021/05/11 06:57:23;;;;;;;5.00;1.50;;;;;;;;;;5007716;28;20028;-73
2021/05/11 06:59:48;;;;;;;3.58;1.88;;;;;;;;;;5008350;28;20061;-74
2021/05/11 07:02:13;;;;;;;3.83;1.40;;;;;;;;;;5004702;28;20072;-73
2021/05/11 07:04:38;;;;;;;1.92;1.50;;;;;;;;;;5008017;28;20030;-73
2021/05/11 07:07:09;;;;;;;2.28;1.40;;;;;;;;;;5008661;28;20200;-73
2021/05/11 07:09:59;;;;;;;3.38;1.70;;;;;;;;;;5005860;28;20033;-73
2021/05/11 07:15:09;;;;;;;2.13;1.60;;;;;;;;;;5008694;28;20092;-73
2021/05/11 07:17:34;;;;;;;5.72;1.73;;;;;;;;;;5005553;28;20105;-73
2021/05/11 07:19:59;;;;;;;3.30;1.57;;;;;;;;;;5004975;28;20121;-74
2021/05/11 07:22:24;;;;;;;3.38;1.92;;;;;;;;;;5008443;28;20277;-74
2021/05/11 07:24:54;;;;;;;2.67;1.70;;;;;;;;;;5012370;28;20141;-73
2021/05/11 07:27:44;;;;;;;3.40;1.65;;;;;;;;;;5008766;28;20018;-72
2021/05/11 07:30:15;;;;;;;3.90;1.80;;;;;;;;;;5008845;28;20062;-73
2021/05/11 07:32:41;;;;;;;2.22;1.60;;;;;;;;;;5008609;28;20022;-73
2021/05/11 07:35:06;;;;;;;3.28;1.77;;;;;;;;;;5008955;28;20030;-73
2021/05/11 07:37:32;;;;;;;3.38;1.80;;;;;;;;;;5008564;28;20128;-73
2021/05/11 07:39:57;;;;;;;4.03;1.98;;;;;;;;;;5008946;28;20037;-72
2021/05/11 07:42:22;;;;;;;4.35;1.70;;;;;;;;;;4990923;28;20080;-73
2021/05/11 07:44:50;;;;;;;6.25;2.30;;;;;;;;;;5008221;28;20437;-73
2021/05/11 07:47:57;;;;;;;5.80;1.85;;;;;;;;;;5002451;28;20018;-74
2021/05/11 08:04:02;;;;;;;6.38;2.13;;;;;;;;;;4987286;28;20445;-71
2021/05/11 08:14:41;;;;;;;9.82;2.70;;;;;;;;;;4999919;28;20114;-71
2021/05/11 08:17:07;;;;;;;5.30;2.38;;;;;;;;;;5007193;28;20369;-72
2021/05/11 08:27:33;;;;;;;4.90;2.42;;;;;;;;;;4978009;28;20845;-71
2021/05/11 08:29:59;;;;;;;5.70;2.25;;;;;;;;;;5010159;28;20145;-70
2021/05/11 08:32:24;;;;;;;7.88;2.58;;;;;;;;;;4990204;28;20026;-71
2021/05/11 08:34:49;;;;;;;4.72;2.40;;;;;;;;;;4988915;28;20445;-70
2021/05/11 08:37:17;;;;;;;5.32;2.50;;;;;;;;;;4996636;28;20539;-72
2021/05/11 08:39:44;;;;;;;4.18;2.03;;;;;;;;;;5000985;28;20022;-70
2021/05/11 08:42:09;;;;;;;7.72;2.67;;;;;;;;;;4995119;28;20081;-70
2021/05/11 08:44:35;;;;;;;4.40;2.38;;;;;;;;;;4997491;28;20026;-70
2021/05/11 08:47:00;;;;;;;4.30;2.40;;;;;;;;;;4996258;28;20519;-71
2021/05/11 08:49:25;;;;;;;4.38;2.40;;;;;;;;;;4994883;28;20038;-70
2021/05/11 09:23:55;;;;;;;4.32;2.33;;;;;;;;;;4997312;28;20052;-73
2021/05/11 09:26:48;;;;;;;5.05;2.40;;;;;;;;;;4989976;28;20025;-72
2021/05/11 09:29:27;;;;;;;4.45;2.35;;;;;;;;;;4998183;28;20021;-73
2021/05/11 09:32:05;;;;;;;4.53;2.70;;;;;;;;;;4997356;28;20025;-73
2021/05/11 09:34:39;;;;;;;4.63;2.45;;;;;;;;;;4997937;28;20038;-73
2021/05/11 09:59:15;;;;;;;4.43;2.58;;;;;;;;;;4967636;28;20061;-73
2021/05/11 10:49:20;;;;;;;5.38;3.03;;;;;;;;;;4986781;28;20022;-72
2021/05/11 10:51:45;;;;;;;6.25;2.85;;;;;;;;;;4989573;28;20022;-72
2021/05/11 10:54:13;;;;;;;4.68;2.92;;;;;;;;;;4989171;28;20413;-72
2021/05/11 10:56:43;;;;;;;4.93;3.00;;;;;;;;;;4989327;28;20077;-72
2021/05/11 11:02:03;;;;;;;4.03;2.63;;;;;;;;;;4985668;28;20100;-72
2021/05/11 11:04:32;;;;;;;5.72;2.88;;;;;;;;;;4989381;28;20030;-72
2021/05/11 11:06:58;;;;;;;5.22;3.13;;;;;;;;;;4988345;28;20531;-73
2021/05/11 11:09:26;;;;;;;5.50;3.10;;;;;;;;;;4989314;28;20121;-73
2021/05/11 11:11:52;;;;;;;6.82;3.20;;;;;;;;;;4989714;28;20617;-73
2021/05/11 11:14:17;;;;;;;7.10;3.00;;;;;;;;;;4989502;28;20117;-73
2021/05/11 11:16:42;;;;;;;4.63;2.85;;;;;;;;;;4991871;28;20022;-72
2021/05/11 11:19:08;;;;;;;4.43;2.60;;;;;;;;;;4977965;28;20026;-72
2021/05/11 11:24:31;;;;;;;6.35;3.28;;;;;;;;;;4989466;28;20034;-73
2021/05/11 11:26:57;;;;;;;7.88;3.50;;;;;;;;;;4992447;28;20057;-72
2021/05/11 11:29:23;;;;;;;6.30;3.15;;;;;;;;;;4990790;28;20045;-72
2021/05/11 11:31:48;;;;;;;6.47;3.60;;;;;;;;;;4990428;28;20028;-72
2021/05/11 11:34:24;;;;;;;7.45;3.33;;;;;;;;;;4990074;28;20022;-73
2021/05/11 11:36:59;;;;;;;4.78;3.47;;;;;;;;;;4989404;28;20037;-71
2021/05/11 11:39:25;;;;;;;6.95;3.25;;;;;;;;;;4993297;28;20086;-72
2021/05/11 11:41:51;;;;;;;3.80;3.13;;;;;;;;;;4977794;28;20110;-73
2021/05/11 11:44:17;;;;;;;7.43;2.90;;;;;;;;;;4988697;28;20121;-71
2021/05/11 11:46:42;;;;;;;6.35;2.72;;;;;;;;;;4983511;28;20030;-72
2021/05/11 11:49:12;;;;;;;6.97;3.10;;;;;;;;;;4986187;28;20022;-73
2021/05/11 11:51:38;;;;;;;5.38;3.35;;;;;;;;;;4988637;28;20018;-72
2021/05/11 11:54:05;;;;;;;7.00;3.28;;;;;;;;;;4989295;28;20042;-72
2021/05/11 11:59:17;;;;;;;5.75;3.40;;;;;;;;;;4997631;28;20032;-72
2021/05/11 12:01:53;;;;;;;4.80;3.03;;;;;;;;;;4972255;28;20022;-72
2021/05/11 12:04:19;;;;;;;8.93;3.13;;;;;;;;;;4982590;28;20081;-72
2021/05/11 12:06:48;;;;;;;5.80;3.10;;;;;;;;;;4971943;28;20050;-72
2021/05/11 12:09:13;;;;;;;5.95;3.10;;;;;;;;;;4973874;28;20029;-71
2021/05/11 12:11:38;;;;;;;4.63;2.90;;;;;;;;;;4989590;28;20018;-72
2021/05/11 12:14:04;;;;;;;7.05;3.25;;;;;;;;;;4994635;28;20018;-72
2021/05/11 12:16:29;;;;;;;4.63;2.65;;;;;;;;;;4989758;28;20088;-73
2021/05/11 12:19:09;;;;;;;6.45;3.25;;;;;;;;;;4992164;28;20037;-71
2021/05/11 12:21:36;;;;;;;8.10;3.30;;;;;;;;;;4989550;28;20413;-73
2021/05/11 12:24:05;;;;;;;5.25;3.10;;;;;;;;;;4989030;28;20363;-73
2021/05/11 12:26:30;;;;;;;4.45;2.92;;;;;;;;;;4990120;28;20018;-71
2021/05/11 12:29:04;;;;;;;4.65;2.90;;;;;;;;;;4988821;28;20449;-72
2021/05/11 12:31:37;;;;;;;6.25;3.80;;;;;;;;;;4994027;28;20022;-72
2021/05/11 12:34:06;;;;;;;6.85;3.45;;;;;;;;;;4989441;28;20081;-73
2021/05/11 12:36:31;;;;;;;5.63;4.03;;;;;;;;;;4995305;28;20746;-72
2021/05/11 12:39:17;;;;;;;6.57;4.10;;;;;;;;;;4994450;28;20029;-72
2021/05/11 12:41:42;;;;;;;5.15;3.55;;;;;;;;;;5000345;28;20351;-72
2021/05/11 12:44:07;;;;;;;5.97;3.92;;;;;;;;;;4998963;28;20041;-72
2021/05/11 12:46:37;;;;;;;8.48;4.35;;;;;;;;;;5010201;28;20029;-72
2021/05/11 12:49:02;;;;;;;;;;;;;;;;;;4988341;28;20022;-72
2021/05/11 12:51:28;;;;;;;5.10;4.15;;;;;;;;;;5013702;28;19933;-74
2021/05/11 12:53:56;;;;;;;7.70;3.70;;;;;;;;;;5006656;28;20273;-71
2021/05/11 12:56:36;;;;;;;5.47;4.20;;;;;;;;;;4997158;28;20040;-73
2021/05/11 12:59:12;;;;;;;6.22;3.75;;;;;;;;;;5001590;28;20042;-73
2021/05/11 13:23:07;;;;;;;8.90;4.22;;;;;;;;;;4969894;28;20488;-73
2021/05/11 13:28:07;;;;;;;6.13;4.30;;;;;;;;;;4969385;28;20034;-73
2021/05/11 13:30:41;;;;;;;6.30;3.92;;;;;;;;;;4968893;28;20042;-73
2021/05/11 13:35:33;;;;;;;8.18;4.07;;;;;;;;;;4963682;28;20015;-73
2021/05/11 13:37:58;;;;;;;5.32;3.42;;;;;;;;;;4968968;28;20023;-73
2021/05/11 13:40:23;;;;;;;6.47;4.00;;;;;;;;;;4969256;28;20034;-73
2021/05/11 13:42:48;;;;;;;10.35;4.60;;;;;;;;;;4969250;28;20702;-72
2021/05/11 13:45:14;;;;;;;7.53;4.10;;;;;;;;;;4968673;28;20623;-72
2021/05/11 13:47:41;;;;;;;7.05;4.25;;;;;;;;;;4969253;28;20405;-73
2021/05/11 13:50:07;;;;;;;6.03;4.03;;;;;;;;;;4968620;28;20053;-72
2021/05/11 13:52:33;;;;;;;7.82;4.80;;;;;;;;;;4968984;28;20023;-72
2021/05/11 13:55:07;;;;;;;7.35;5.00;;;;;;;;;;4952973;28;20138;-72
2021/05/11 14:03:01;;;;;;;6.90;5.40;;;;;;;;;;5003450;28;20412;-72
2021/05/11 14:05:26;;;;;;;6.57;5.10;;;;;;;;;;4991169;28;20424;-71
2021/05/11 14:07:51;;;;;;;6.78;5.60;;;;;;;;;;5009432;28;20021;-73
2021/05/11 14:10:18;;;;;;;7.50;5.30;;;;;;;;;;5008602;28;20470;-72
2021/05/11 14:12:43;;;;;;;10.35;5.70;;;;;;;;;;5012584;28;20041;-73
2021/05/11 14:15:08;;;;;;;9.35;5.93;;;;;;;;;;5009425;28;20061;-72
2021/05/11 14:17:34;;;;;;;11.75;6.03;;;;;;;;;;5008998;28;20032;-73
2021/05/11 14:19:59;;;;;;;16.40;6.45;;;;;;;;;;5009308;28;20033;-73
2021/05/11 14:22:25;;;;;;;9.18;5.90;;;;;;;;;;5011515;28;20839;-73
2021/05/11 14:24:50;;;;;;;9.38;5.40;;;;;;;;;;5008830;28;20396;-73
2021/05/11 14:27:16;;;;;;;7.63;4.70;;;;;;;;;;5009120;28;20093;-73
2021/05/11 14:29:41;;;;;;;6.57;4.70;;;;;;;;;;5010102;28;20276;-73
2021/05/11 14:32:07;;;;;;;10.05;5.25;;;;;;;;;;5008661;28;20025;-73
2021/05/11 14:34:32;;;;;;;11.18;4.72;;;;;;;;;;5008466;28;20033;-73
2021/05/11 14:36:57;;;;;;;7.45;5.00;;;;;;;;;;5008971;28;20018;-74
2021/05/11 14:39:23;;;;;;;8.18;4.90;;;;;;;;;;5009149;28;20025;-73
2021/05/11 14:41:53;;;;;;;7.40;5.00;;;;;;;;;;5008758;28;20010;-73
2021/05/11 14:44:19;;;;;;;9.38;5.47;;;;;;;;;;5008219;28;20033;-73
2021/05/11 14:46:44;;;;;;;8.45;5.70;;;;;;;;;;5008964;28;20117;-72
2021/05/11 14:49:09;;;;;;;6.45;5.15;;;;;;;;;;5009540;28;20029;-72
2021/05/11 14:51:35;;;;;;;6.85;5.10;;;;;;;;;;5008794;28;20032;-73
2021/05/11 14:54:00;;;;;;;5.80;4.78;;;;;;;;;;5004394;28;20038;-72
2021/05/11 14:56:25;;;;;;;10.80;5.13;;;;;;;;;;5009385;28;20026;-73
2021/05/11 14:58:50;;;;;;;5.75;4.53;;;;;;;;;;5009443;28;20097;-73
2021/05/11 15:01:15;;;;;;;8.70;5.13;;;;;;;;;;5008185;28;20112;-73
2021/05/11 15:03:40;;;;;;;8.60;4.63;;;;;;;;;;5009285;28;20038;-72
2021/05/11 15:06:06;;;;;;;7.47;4.63;;;;;;;;;;5008887;28;20018;-72
2021/05/11 15:08:31;;;;;;;9.05;4.88;;;;;;;;;;5008372;28;20438;-73
2021/05/11 15:10:57;;;;;;;5.82;5.05;;;;;;;;;;5010249;28;20021;-72
2021/05/11 15:13:23;;;;;;;7.07;4.25;;;;;;;;;;5008549;28;20032;-73
2021/05/11 15:15:51;;;;;;;10.73;4.70;;;;;;;;;;5008667;28;20018;-73
2021/05/11 15:18:16;;;;;;;7.88;4.78;;;;;;;;;;5008296;28;20076;-74
2021/05/11 15:20:42;;;;;;;9.57;6.00;;;;;;;;;;5008243;28;20030;-73
2021/05/11 15:23:07;;;;;;;8.57;5.85;;;;;;;;;;4990589;28;20134;-73
2021/05/11 15:25:33;;;;;;;9.60;5.85;;;;;;;;;;5008252;28;20433;-73
2021/05/11 15:27:59;;;;;;;7.35;6.20;;;;;;;;;;5013965;28;20021;-72
2021/05/11 15:30:26;;;;;;;9.80;7.00;;;;;;;;;;5008030;28;20087;-72
2021/05/11 15:32:57;;;;;;;9.27;5.82;;;;;;;;;;5008561;28;20052;-73
2021/05/11 15:35:27;;;;;;;9.50;6.78;;;;;;;;;;5009607;28;20025;-72
2021/05/11 15:37:54;;;;;;;;;;;;;;;;;;5008763;28;20033;-72
2021/05/11 15:40:20;;;;;;;11.63;6.47;;;;;;;;;;5006457;28;19909;-73
2021/05/11 15:42:45;;;;;;;11.02;8.07;;;;;;;;;;5007657;28;20073;-74
2021/05/11 15:45:11;;;;;;;11.98;6.82;;;;;;;;;;5006721;28;20053;-73
2021/05/11 15:47:51;;;;;;;9.25;6.47;;;;;;;;;;5009054;28;20526;-73
2021/05/11 15:50:17;;;;;;;10.77;6.82;;;;;;;;;;5007680;28;20079;-73
2021/05/11 15:52:42;;;;;;;8.35;6.38;;;;;;;;;;5008507;28;20065;-73
2021/05/11 15:55:08;;;;;;;10.50;6.60;;;;;;;;;;5007883;28;20041;-73
2021/05/11 15:57:33;;;;;;;10.10;7.25;;;;;;;;;;5007872;28;20489;-73
2021/05/11 15:59:58;;;;;;;8.18;6.18;;;;;;;;;;5006969;28;20034;-73
2021/05/11 16:02:23;;;;;;;9.77;6.73;;;;;;;;;;5009905;28;20060;-73
2021/05/11 16:04:48;;;;;;;9.65;6.80;;;;;;;;;;4990304;28;20394;-73
2021/05/11 16:07:13;;;;;;;9.15;7.22;;;;;;;;;;5008604;28;20022;-73
2021/05/11 16:09:39;;;;;;;10.02;7.07;;;;;;;;;;5008536;28;20152;-73
2021/05/11 16:12:04;;;;;;;8.13;6.28;;;;;;;;;;5010426;28;20351;-73
2021/05/11 16:14:29;;;;;;;8.63;6.85;;;;;;;;;;5011581;28;20018;-73
2021/05/11 16:16:56;;;;;;;8.93;6.30;;;;;;;;;;5013403;28;20096;-73
2021/05/11 16:19:21;;;;;;;9.20;7.00;;;;;;;;;;5014429;28;20121;-74
2021/05/11 16:21:46;;;;;;;11.40;7.75;;;;;;;;;;5013092;28;20093;-73
2021/05/11 16:24:11;;;;;;;12.50;7.90;;;;;;;;;;5017218;28;20473;-74
2021/05/11 16:26:37;;;;;;;11.82;8.05;;;;;;;;;;5012124;28;20081;-74
2021/05/11 16:29:03;;;;;;;14.23;9.25;;;;;;;;;;5012457;28;20030;-74
2021/05/11 16:31:29;;;;;;;13.23;8.98;;;;;;;;;;5010287;28;20018;-73
2021/05/11 16:33:54;;;;;;;11.82;8.80;;;;;;;;;;5011434;28;20028;-73
2021/05/11 16:36:19;;;;;;;13.68;9.43;;;;;;;;;;5011605;28;20384;-73
2021/05/11 16:38:44;;;;;;;13.48;9.07;;;;;;;;;;5010906;28;20443;-75
2021/05/11 16:41:10;;;;;;;13.75;9.25;;;;;;;;;;5011498;28;20021;-73
2021/05/11 16:43:35;;;;;;;12.30;9.25;;;;;;;;;;5004058;28;20038;-72
2021/05/11 16:46:02;;;;;;;12.35;8.90;;;;;;;;;;5003203;28;20381;-74
2021/05/11 16:48:27;;;;;;;17.25;9.10;;;;;;;;;;5001666;28;20036;-72
2021/05/11 16:50:52;;;;;;;15.65;9.38;;;;;;;;;;4989454;28;20069;-73
2021/05/11 16:53:18;;;;;;;15.85;10.25;;;;;;;;;;5007364;28;20794;-73
2021/05/11 16:55:43;;;;;;;14.60;9.82;;;;;;;;;;4989688;28;20045;-73
2021/05/11 16:58:09;;;;;;;14.40;9.27;;;;;;;;;;5003959;28;20071;-73
2021/05/11 17:00:35;;;;;;;13.18;8.63;;;;;;;;;;5006860;28;20462;-73
2021/05/11 17:03:03;;;;;;;13.10;9.27;;;;;;;;;;5011734;28;20030;-73
2021/05/11 17:05:32;;;;;;;14.38;9.10;;;;;;;;;;5001157;28;20358;-72
2021/05/11 17:07:58;;;;;;;11.52;8.55;;;;;;;;;;5007317;28;20156;-73
2021/05/11 17:10:25;;;;;;;12.10;8.88;;;;;;;;;;4982606;28;20492;-72
2021/05/11 17:12:50;;;;;;;12.40;8.35;;;;;;;;;;5009447;28;20121;-73
2021/05/11 17:15:16;;;;;;;18.27;10.50;;;;;;;;;;5014718;28;20184;-72
2021/05/11 17:17:41;;;;;;;11.88;8.70;;;;;;;;;;4993251;28;20112;-73
2021/05/11 17:20:07;;;;;;;13.77;9.30;;;;;;;;;;5014728;28;20425;-71
2021/05/11 17:22:33;;;;;;;14.27;9.80;;;;;;;;;;5007865;28;20564;-72
2021/05/11 17:24:58;;;;;;;13.88;9.55;;;;;;;;;;5010909;28;20473;-72
2021/05/11 17:27:23;;;;;;;15.43;10.30;;;;;;;;;;5008178;28;20025;-73
2021/05/11 17:29:48;;;;;;;14.15;10.30;;;;;;;;;;5013363;28;20548;-72
2021/05/11 17:32:16;;;;;;;13.77;9.88;;;;;;;;;;5009957;28;20033;-74
2021/05/11 17:34:41;;;;;;;12.57;9.13;;;;;;;;;;5005583;28;20112;-72
2021/05/11 17:37:06;;;;;;;14.32;9.20;;;;;;;;;;5014772;28;20107;-73
2021/05/11 17:39:31;;;;;;;14.43;9.52;;;;;;;;;;5011323;28;20097;-71
2021/05/11 17:41:57;;;;;;;13.70;8.82;;;;;;;;;;5014988;28;20103;-74
2021/05/11 17:44:22;;;;;;;14.10;9.55;;;;;;;;;;5008881;28;20038;-72
2021/05/11 17:46:47;;;;;;;13.75;9.25;;;;;;;;;;5006854;28;20029;-72
2021/05/11 17:49:12;;;;;;;15.65;9.63;;;;;;;;;;4994824;28;20142;-72
2021/05/11 17:51:37;;;;;;;14.32;10.00;;;;;;;;;;4991012;28;20370;-72
2021/05/11 17:54:03;;;;;;;12.52;9.38;;;;;;;;;;5009846;28;20077;-74
2021/05/11 17:56:31;;;;;;;14.43;9.80;;;;;;;;;;5009094;28;20018;-74
2021/05/11 17:58:56;;;;;;;12.80;9.77;;;;;;;;;;5009997;28;20025;-75
2021/05/11 18:01:22;;;;;;;13.88;10.02;;;;;;;;;;5007875;28;20016;-75
2021/05/11 18:03:48;;;;;;;14.02;9.85;;;;;;;;;;4991284;28;20401;-74
2021/05/11 18:06:13;;;;;;;15.45;9.82;;;;;;;;;;5009992;28;20065;-73
2021/05/11 18:08:39;;;;;;;16.15;11.13;;;;;;;;;;5009182;28;20577;-74
2021/05/11 18:11:04;;;;;;;15.45;10.13;;;;;;;;;;5008390;28;20029;-75
2021/05/11 18:13:32;;;;;;;12.77;7.93;;;;;;;;;;5008106;28;20991;-74
2021/05/11 18:15:57;;;;;;;7.57;5.03;;;;;;;;;;5010270;28;20037;-74
2021/05/11 18:18:22;;;;;;;2.78;2.20;;;;;;;;;;5010063;28;20684;-75
2021/05/11 18:20:48;;;;;;;2.10;1.80;;;;;;;;;;5011763;28;20057;-73
2021/05/11 18:23:13;;;;;;;2.75;1.40;;;;;;;;;;5010493;28;20021;-74
2021/05/11 18:25:38;;;;;;;1.52;1.25;;;;;;;;;;4994615;28;20064;-73
2021/05/11 18:28:03;;;;;;;2.10;1.52;;;;;;;;;;5009431;28;20041;-77
2021/05/11 18:30:29;;;;;;;2.10;1.30;;;;;;;;;;5007234;28;20029;-74
2021/05/11 18:32:54;;;;;;;1.33;0.90;;;;;;;;;;4993146;28;20018;-73
2021/05/11 18:35:24;;;;;;;1.35;0.90;;;;;;;;;;5008820;28;20108;-75
2021/05/11 18:40:14;;;;;;;0.93;0.70;;;;;;;;;;5013104;28;20113;-74
2021/05/11 18:42:39;;;;;;;0.98;0.70;;;;;;;;;;5007864;28;20960;-74